createdAt,value
2022-09-15T00:00:01.055Z,16.06
2022-09-15T00:02:27.778Z,16.09
2022-09-15T00:04:54.448Z,16.03
2022-09-15T00:07:21.056Z,16.01
2022-09-15T00:09:47.646Z,15.95
2022-09-15T00:12:14.281Z,15.95
2022-09-15T00:14:41.431Z,15.85
2022-09-15T00:17:08.220Z,15.85
2022-09-15T00:19:35.659Z,15.83
2022-09-15T00:22:02.257Z,15.72
2022-09-15T00:24:28.943Z,15.68
2022-09-15T00:26:56.699Z,15.68
2022-09-15T00:29:23.362Z,15.53
2022-09-15T00:31:50.365Z,15.57
2022-09-15T00:34:17.049Z,15.62
2022-09-15T00:36:43.694Z,15.53
2022-09-15T00:39:10.387Z,15.60
2022-09-15T00:41:39.663Z,15.68
2022-09-15T00:44:35.357Z,15.70
2022-09-15T00:47:18.762Z,15.63
2022-09-15T00:49:48.188Z,15.62
2022-09-15T00:52:34.549Z,15.51
2022-09-15T00:55:11.819Z,15.40
2022-09-15T00:57:49.609Z,15.34
2022-09-15T01:00:18.810Z,15.35
2022-09-15T01:02:47.327Z,15.39
2022-09-15T01:05:17.540Z,15.13
2022-09-15T01:07:51.709Z,15.28
2022-09-15T01:10:34.324Z,15.13
2022-09-15T01:13:04.305Z,15.23
2022-09-15T01:16:09.633Z,15.08
2022-09-15T01:19:01.288Z,15.15
2022-09-15T01:21:52.216Z,15.17
2022-09-15T01:24:30.266Z,15.28
2022-09-15T01:27:18.539Z,15.32
2022-09-15T01:29:52.911Z,15.36
2022-09-15T01:32:45.004Z,15.35
2022-09-15T01:35:28.310Z,15.37
2022-09-15T01:38:08.412Z,15.42
2022-09-15T01:40:55.654Z,15.42
2022-09-15T01:43:25.643Z,15.33
2022-09-15T01:45:53.250Z,15.25
2022-09-15T01:48:23.366Z,15.32
2022-09-15T01:50:56.000Z,15.30
2022-09-15T01:53:24.068Z,15.27
2022-09-15T01:56:09.589Z,15.40
2022-09-15T01:58:39.473Z,15.37
2022-09-15T02:01:12.797Z,15.29
2022-09-15T02:03:55.999Z,15.21
2022-09-15T02:06:33.738Z,15.14
2022-09-15T02:09:11.249Z,15.03
2022-09-15T02:11:45.877Z,14.96
2022-09-15T02:14:17.267Z,14.95
2022-09-15T02:16:48.126Z,14.86
2022-09-15T02:19:31.072Z,14.90
2022-09-15T02:22:07.659Z,14.85
2022-09-15T02:24:42.313Z,14.76
2022-09-15T02:27:16.733Z,14.82
2022-09-15T02:29:47.719Z,14.63
2022-09-15T02:32:17.804Z,14.55
2022-09-15T02:34:48.277Z,14.57
2022-09-15T02:37:15.064Z,14.64
2022-09-15T02:39:47.920Z,14.70
2022-09-15T02:42:24.511Z,14.64
2022-09-15T02:44:51.385Z,14.65
2022-09-15T02:47:18.227Z,14.77
2022-09-15T02:49:44.829Z,14.75
2022-09-15T02:52:11.905Z,14.71
2022-09-15T02:54:38.568Z,14.76
2022-09-15T02:57:05.790Z,14.73
2022-09-15T02:59:52.667Z,14.60
2022-09-15T03:02:20.544Z,14.59
2022-09-15T03:04:48.433Z,14.66
2022-09-15T03:07:16.108Z,14.56
2022-09-15T03:09:42.773Z,14.53
2022-09-15T03:12:09.542Z,14.63
2022-09-15T03:14:36.227Z,14.58
2022-09-15T03:17:03.185Z,14.50
2022-09-15T03:19:29.924Z,14.55
2022-09-15T03:21:56.675Z,14.61
2022-09-15T03:24:23.341Z,14.64
2022-09-15T03:26:50.115Z,14.68
2022-09-15T03:29:16.942Z,14.61
2022-09-15T03:31:43.586Z,14.66
2022-09-15T03:34:10.257Z,14.79
2022-09-15T03:36:36.888Z,14.82
2022-09-15T03:39:03.628Z,14.91
2022-09-15T03:41:30.337Z,14.96
2022-09-15T03:43:56.925Z,15.08
2022-09-15T03:46:23.714Z,15.11
2022-09-15T03:48:50.357Z,15.14
2022-09-15T03:51:16.941Z,15.18
2022-09-15T03:53:43.782Z,15.27
2022-09-15T03:56:27.373Z,15.35
2022-09-15T03:58:54.427Z,15.05
2022-09-15T04:01:21.536Z,15.11
2022-09-15T04:03:51.076Z,15.22
2022-09-15T04:06:20.274Z,15.18
2022-09-15T04:08:47.661Z,15.34
2022-09-15T04:11:14.776Z,15.39
2022-09-15T04:13:42.469Z,15.34
2022-09-15T04:16:12.715Z,15.29
2022-09-15T04:18:39.676Z,15.12
2022-09-15T04:21:10.644Z,15.23
2022-09-15T04:23:37.641Z,15.10
2022-09-15T04:26:07.309Z,15.21
2022-09-15T04:28:37.204Z,15.29
2022-09-15T04:31:06.509Z,15.26
2022-09-15T04:33:33.873Z,15.30
2022-09-15T04:36:01.865Z,15.34
2022-09-15T04:38:28.913Z,15.22
2022-09-15T04:40:55.501Z,15.08
2022-09-15T04:43:22.511Z,15.07
2022-09-15T04:45:49.507Z,15.06
2022-09-15T04:48:16.138Z,15.06
2022-09-15T04:50:43.043Z,14.97
2022-09-15T04:53:09.659Z,15.05
2022-09-15T04:55:37.079Z,15.13
2022-09-15T04:58:04.112Z,15.10
2022-09-15T05:00:32.749Z,15.02
2022-09-15T05:02:59.787Z,15.18
2022-09-15T05:05:26.969Z,15.24
2022-09-15T05:07:53.586Z,15.18
2022-09-15T05:10:20.552Z,15.06
2022-09-15T05:12:47.137Z,15.00
2022-09-15T05:15:13.778Z,15.12
2022-09-15T05:17:40.616Z,15.15
2022-09-15T05:20:07.589Z,15.22
2022-09-15T05:22:36.291Z,15.25
2022-09-15T05:25:06.349Z,15.25
2022-09-15T05:27:33.889Z,15.25
2022-09-15T05:30:31.745Z,15.23
2022-09-15T05:32:47.177Z,15.04
2022-09-15T05:35:13.846Z,15.10
2022-09-15T05:37:40.457Z,15.14
2022-09-15T05:40:08.710Z,15.14
2022-09-15T05:42:35.570Z,14.88
2022-09-15T05:45:02.178Z,14.83
2022-09-15T05:47:28.838Z,14.86
2022-09-15T05:49:55.618Z,15.01
2022-09-15T05:52:22.220Z,15.11
2022-09-15T05:54:48.852Z,15.00
2022-09-15T05:57:15.529Z,15.00
2022-09-15T05:59:43.867Z,14.95
2022-09-15T06:02:11.572Z,14.88
2022-09-15T06:04:38.927Z,15.01
2022-09-15T06:07:05.776Z,15.19
2022-09-15T06:09:32.374Z,15.34
2022-09-15T06:11:59.005Z,15.38
2022-09-15T06:14:25.739Z,15.10
2022-09-15T06:16:52.429Z,15.12
2022-09-15T06:19:19.418Z,15.33
2022-09-15T06:21:46.425Z,15.17
2022-09-15T06:24:13.104Z,15.15
2022-09-15T06:26:39.824Z,15.54
2022-09-15T06:29:06.544Z,15.75
2022-09-15T06:31:34.160Z,15.97
2022-09-15T06:34:03.765Z,16.32
2022-09-15T06:36:31.033Z,16.86
2022-09-15T06:38:58.507Z,17.17
2022-09-15T06:41:25.893Z,17.69
2022-09-15T06:43:53.165Z,17.29
2022-09-15T06:46:22.512Z,17.24
2022-09-15T06:48:51.162Z,18.38
2022-09-15T06:51:19.688Z,18.62
2022-09-15T06:53:46.992Z,19.05
2022-09-15T06:56:23.874Z,19.07
2022-09-15T06:58:51.041Z,19.44
2022-09-15T07:01:27.120Z,19.70
2022-09-15T07:03:54.417Z,20.65
2022-09-15T07:06:22.422Z,22.69
2022-09-15T07:08:49.935Z,24.18
2022-09-15T07:11:18.515Z,23.33
2022-09-15T07:13:45.327Z,20.07
2022-09-15T07:16:13.385Z,20.67
2022-09-15T07:18:43.208Z,20.55
2022-09-15T07:21:15.370Z,19.31
2022-09-15T07:23:42.460Z,19.50
2022-09-15T07:26:11.898Z,19.76
2022-09-15T07:28:39.906Z,19.67
2022-09-15T07:31:09.494Z,19.90
2022-09-15T07:33:36.342Z,20.14
2022-09-15T07:36:04.807Z,20.54
2022-09-15T07:38:31.394Z,20.91
2022-09-15T07:41:32.424Z,20.59
2022-09-15T07:44:00.397Z,20.85
2022-09-15T07:46:31.024Z,20.14
2022-09-15T07:48:57.812Z,20.11
2022-09-15T07:51:25.512Z,19.69
2022-09-15T07:53:53.082Z,19.36
2022-09-15T07:56:20.354Z,18.93
2022-09-15T07:58:48.334Z,19.09
2022-09-15T08:01:16.822Z,19.10
2022-09-15T08:03:46.398Z,19.08
2022-09-15T08:06:13.577Z,18.98
2022-09-15T08:08:41.417Z,19.13
2022-09-15T08:11:09.314Z,19.29
2022-09-15T08:13:36.204Z,19.42
2022-09-15T08:16:10.984Z,19.56
2022-09-15T08:18:39.228Z,19.45
2022-09-15T08:21:12.211Z,19.42
2022-09-15T08:23:39.273Z,19.25
2022-09-15T08:26:11.840Z,18.99
2022-09-15T08:28:40.631Z,19.38
2022-09-15T08:31:09.219Z,19.40
2022-09-15T08:33:36.061Z,19.34
2022-09-15T08:36:10.851Z,19.22
2022-09-15T08:38:41.513Z,18.71
2022-09-15T08:41:12.199Z,18.84
2022-09-15T08:43:48.408Z,18.52
2022-09-15T08:46:22.660Z,18.82
2022-09-15T08:49:02.759Z,19.41
2022-09-15T08:51:48.273Z,19.22
2022-09-15T08:54:21.330Z,19.27
2022-09-15T08:56:48.571Z,19.12
2022-09-15T08:59:17.541Z,19.45
2022-09-15T09:02:21.895Z,19.94
2022-09-15T09:05:25.048Z,22.12
2022-09-15T09:08:01.092Z,21.35
2022-09-15T09:10:53.270Z,20.14
2022-09-15T09:13:39.050Z,20.29
2022-09-15T09:16:27.281Z,21.37
2022-09-15T09:19:02.170Z,20.73
2022-09-15T09:21:37.678Z,20.45
2022-09-15T09:24:13.129Z,19.64
2022-09-15T09:26:40.224Z,19.91
2022-09-15T09:29:16.157Z,20.15
2022-09-15T09:31:45.849Z,21.29
2022-09-15T09:34:17.559Z,23.56
2022-09-15T09:36:44.217Z,25.78
2022-09-15T09:39:15.163Z,26.13
2022-09-15T09:41:42.496Z,23.13
2022-09-15T09:44:15.081Z,22.05
2022-09-15T09:46:42.399Z,21.08
2022-09-15T09:49:23.232Z,20.46
2022-09-15T09:51:55.305Z,19.75
2022-09-15T09:54:28.209Z,19.98
2022-09-15T09:56:57.096Z,19.53
2022-09-15T09:59:33.037Z,19.39
2022-09-15T10:02:05.964Z,19.60
2022-09-15T10:04:32.713Z,19.49
2022-09-15T10:06:59.460Z,19.09
2022-09-15T10:09:29.982Z,19.18
2022-09-15T10:12:04.030Z,18.97
2022-09-15T10:14:40.256Z,18.88
2022-09-15T10:17:20.182Z,18.69
2022-09-15T10:19:48.569Z,18.52
2022-09-15T10:22:31.798Z,18.59
2022-09-15T10:25:00.992Z,18.70
2022-09-15T10:27:35.997Z,19.52
2022-09-15T10:30:14.665Z,19.58
2022-09-15T10:32:43.226Z,19.84
2022-09-15T10:35:13.408Z,19.99
2022-09-15T10:37:49.070Z,19.69
2022-09-15T10:40:32.926Z,19.30
2022-09-15T10:43:22.688Z,18.99
2022-09-15T10:45:56.509Z,19.01
2022-09-15T10:48:43.956Z,18.96
2022-09-15T10:51:48.030Z,19.20
2022-09-15T10:54:14.726Z,19.01
2022-09-15T10:56:46.424Z,19.45
2022-09-15T10:59:37.581Z,19.54
2022-09-15T11:02:16.603Z,19.34
2022-09-15T11:05:11.711Z,19.18
2022-09-15T11:07:41.254Z,19.15
2022-09-15T11:10:36.967Z,18.86
2022-09-15T11:13:29.577Z,19.50
2022-09-15T11:16:22.417Z,19.87
2022-09-15T11:19:21.419Z,19.97
2022-09-15T11:21:56.482Z,20.04
2022-09-15T11:24:39.379Z,19.78
2022-09-15T11:27:16.484Z,20.13
2022-09-15T11:30:05.502Z,20.48
2022-09-15T11:32:41.430Z,20.64
2022-09-15T11:35:31.062Z,20.60
2022-09-15T11:38:42.829Z,20.84
2022-09-15T11:41:34.982Z,22.08
2022-09-15T11:44:19.403Z,21.60
2022-09-15T11:47:22.729Z,20.91
2022-09-15T11:50:16.585Z,20.99
2022-09-15T11:52:47.135Z,21.13
2022-09-15T11:55:32.226Z,21.36
2022-09-15T11:58:22.079Z,21.63
2022-09-15T12:01:00.688Z,20.71
2022-09-15T12:03:36.015Z,21.02
2022-09-15T12:06:11.629Z,21.09
2022-09-15T12:08:48.361Z,21.03
2022-09-15T12:11:22.149Z,20.56
2022-09-15T12:13:49.579Z,20.95
2022-09-15T12:16:17.416Z,20.32
2022-09-15T12:19:04.751Z,20.13
2022-09-15T12:21:57.753Z,20.09
2022-09-15T12:24:39.685Z,19.94
2022-09-15T12:27:17.612Z,20.47
2022-09-15T12:29:59.852Z,20.72
2022-09-15T12:32:29.878Z,20.98
2022-09-15T12:35:02.216Z,20.42
2022-09-15T12:37:35.492Z,20.41
2022-09-15T12:40:05.536Z,20.73
2022-09-15T12:42:34.613Z,20.78
2022-09-15T12:45:19.517Z,20.77
2022-09-15T12:48:26.823Z,20.64
2022-09-15T12:51:03.064Z,19.63
2022-09-15T12:53:37.619Z,19.20
2022-09-15T12:56:07.989Z,18.48
2022-09-15T12:58:36.832Z,17.94
2022-09-15T13:01:31.411Z,18.22
2022-09-15T13:03:58.068Z,17.69
2022-09-15T13:06:29.469Z,18.15
2022-09-15T13:09:02.225Z,18.44
2022-09-15T13:11:40.775Z,18.64
2022-09-15T13:14:28.527Z,18.35
2022-09-15T13:17:03.933Z,17.54
2022-09-15T13:19:33.342Z,18.20
2022-09-15T13:22:12.110Z,18.11
2022-09-15T13:25:02.086Z,17.89
2022-09-15T13:27:41.378Z,17.97
2022-09-15T13:30:26.907Z,17.53
2022-09-15T13:33:02.651Z,16.84
2022-09-15T13:35:52.421Z,16.55
2022-09-15T13:38:46.967Z,16.57
2022-09-15T13:41:35.136Z,16.87
2022-09-15T13:44:07.440Z,16.83
2022-09-15T13:46:50.930Z,16.74
2022-09-15T13:49:50.532Z,16.78
2022-09-15T13:52:22.862Z,17.11
2022-09-15T13:55:15.459Z,16.84
2022-09-15T14:00:35.194Z,18.15
2022-09-15T14:03:09.846Z,18.53
2022-09-15T14:05:37.367Z,17.45
2022-09-15T14:08:17.610Z,17.79
2022-09-15T14:10:48.313Z,18.41
2022-09-15T14:13:17.908Z,18.50
2022-09-15T14:16:03.349Z,18.42
2022-09-15T14:18:40.933Z,18.19
2022-09-15T14:21:17.531Z,17.90
2022-09-15T14:23:47.585Z,17.84
2022-09-15T14:26:21.072Z,18.41
2022-09-15T14:29:05.813Z,17.32
2022-09-15T14:31:37.623Z,17.95
2022-09-15T14:34:09.704Z,17.83
2022-09-15T14:36:36.435Z,18.05
2022-09-15T14:39:15.889Z,18.17
2022-09-15T14:41:42.634Z,17.49
2022-09-15T14:47:27.828Z,17.16
2022-09-15T14:50:32.490Z,16.90
2022-09-15T14:53:06.773Z,17.95
2022-09-15T14:55:39.585Z,17.45
2022-09-15T14:58:23.529Z,17.51
2022-09-15T15:00:53.075Z,17.49
2022-09-15T15:03:43.126Z,17.21
2022-09-15T15:06:33.071Z,17.76
2022-09-15T15:09:06.671Z,17.71
2022-09-15T15:11:35.898Z,17.66
2022-09-15T15:14:04.523Z,16.69
2022-09-15T15:16:32.091Z,17.36
2022-09-15T15:18:58.801Z,17.02
2022-09-15T15:21:43.969Z,17.26
2022-09-15T15:24:13.579Z,17.09
2022-09-15T15:26:45.634Z,17.25
2022-09-15T15:29:43.141Z,17.39
2022-09-15T15:32:20.188Z,17.66
2022-09-15T15:34:52.946Z,17.52
2022-09-15T15:37:26.328Z,17.22
2022-09-15T15:39:54.520Z,17.08
2022-09-15T15:42:21.620Z,16.88
2022-09-15T15:45:01.822Z,16.42
2022-09-15T15:47:36.843Z,16.02
2022-09-15T15:50:16.580Z,16.45
2022-09-15T15:52:43.995Z,16.55
2022-09-15T15:55:17.433Z,16.18
2022-09-15T15:57:45.449Z,16.49
2022-09-15T16:00:21.337Z,16.33
2022-09-15T16:02:48.988Z,16.46
2022-09-15T16:05:15.670Z,16.34
2022-09-15T16:07:44.237Z,15.82
2022-09-15T16:10:17.082Z,15.92
2022-09-15T16:12:43.818Z,15.93
2022-09-15T16:15:20.288Z,15.99
2022-09-15T16:17:47.827Z,15.26
2022-09-15T16:20:19.804Z,15.45
2022-09-15T16:22:46.853Z,15.65
2022-09-15T16:25:17.268Z,15.90
2022-09-15T16:27:44.176Z,15.94
2022-09-15T16:30:13.843Z,15.98
2022-09-15T16:32:41.264Z,15.71
2022-09-15T16:35:51.244Z,15.76
2022-09-15T16:38:20.053Z,15.57
2022-09-15T16:40:48.127Z,15.52
2022-09-15T16:43:21.506Z,15.55
2022-09-15T16:45:49.288Z,15.37
2022-09-15T16:48:15.981Z,15.37
2022-09-15T16:51:01.210Z,15.43
2022-09-15T16:53:31.016Z,15.50
2022-09-15T16:55:58.591Z,15.32
2022-09-15T16:58:25.240Z,15.31
2022-09-15T17:00:52.886Z,15.35
2022-09-15T17:03:22.736Z,15.32
2022-09-15T17:05:54.261Z,15.33
2022-09-15T17:08:29.606Z,15.20
2022-09-15T17:10:58.583Z,15.26
2022-09-15T17:13:30.095Z,15.28
2022-09-15T17:15:58.545Z,15.26
2022-09-15T17:18:25.866Z,14.93
2022-09-15T17:20:52.571Z,14.93
2022-09-15T17:23:45.342Z,14.75
2022-09-15T17:26:15.177Z,14.60
2022-09-15T17:28:42.270Z,14.77
2022-09-15T17:31:15.518Z,14.95
2022-09-15T17:33:42.942Z,14.95
2022-09-15T17:36:10.074Z,15.04
2022-09-15T17:38:36.995Z,14.74
2022-09-15T17:41:03.692Z,14.70
2022-09-15T17:43:31.459Z,14.50
2022-09-15T17:45:58.596Z,14.41
2022-09-15T17:48:25.419Z,14.43
2022-09-15T17:50:52.495Z,14.65
2022-09-15T17:53:22.538Z,14.52
2022-09-15T17:55:50.864Z,14.33
2022-09-15T17:58:17.811Z,14.32
2022-09-15T18:00:45.346Z,14.22
2022-09-15T18:03:17.773Z,14.11
2022-09-15T18:05:44.415Z,13.99
2022-09-15T18:08:11.138Z,13.85
2022-09-15T18:10:37.834Z,13.78
2022-09-15T18:13:05.658Z,13.77
2022-09-15T18:15:34.855Z,13.80
2022-09-15T18:18:03.904Z,13.88
2022-09-15T18:20:32.834Z,13.86
2022-09-15T18:23:00.180Z,13.89
2022-09-15T18:25:31.186Z,13.70
2022-09-15T18:27:59.172Z,13.77
2022-09-15T18:30:31.443Z,13.82
2022-09-15T18:32:59.233Z,13.73
2022-09-15T18:35:26.437Z,13.66
2022-09-15T18:37:59.612Z,13.51
2022-09-15T18:40:27.810Z,13.39
2022-09-15T18:42:56.479Z,13.28
2022-09-15T18:45:23.374Z,13.27
2022-09-15T18:47:52.144Z,13.26
2022-09-15T18:50:21.801Z,13.13
2022-09-15T18:52:49.408Z,13.11
2022-09-15T18:55:18.969Z,12.74
2022-09-15T18:57:46.030Z,12.66
2022-09-15T19:00:16.716Z,12.49
2022-09-15T19:02:44.419Z,12.49
2022-09-15T19:05:12.184Z,12.55
2022-09-15T19:07:39.002Z,12.43
2022-09-15T19:10:07.386Z,12.34
2022-09-15T19:12:37.870Z,12.25
2022-09-15T19:15:10.763Z,12.17
2022-09-15T19:17:39.285Z,12.16
2022-09-15T19:20:08.183Z,12.16
2022-09-15T19:22:36.010Z,12.18
2022-09-15T19:25:03.559Z,12.20
2022-09-15T19:27:30.363Z,12.06
2022-09-15T19:29:57.031Z,12.17
2022-09-15T19:32:24.471Z,12.07
2022-09-15T19:34:51.130Z,12.03
2022-09-15T19:37:19.818Z,12.14
2022-09-15T19:39:47.418Z,12.21
2022-09-15T19:44:42.475Z,12.22
2022-09-15T19:47:09.429Z,12.33
2022-09-15T19:49:36.100Z,12.20
2022-09-15T19:52:02.955Z,11.95
2022-09-15T19:54:30.658Z,11.87
2022-09-15T19:56:57.788Z,11.90
2022-09-15T19:59:30.176Z,11.85
2022-09-15T20:01:57.922Z,11.93
2022-09-15T20:04:24.698Z,12.10
2022-09-15T20:06:51.824Z,12.25
2022-09-15T20:09:18.778Z,12.22
2022-09-15T20:11:45.598Z,12.24
2022-09-15T20:14:12.394Z,12.21
2022-09-15T20:16:39.497Z,11.82
2022-09-15T20:19:06.576Z,12.14
2022-09-15T20:21:51.623Z,12.27
2022-09-15T20:24:19.708Z,12.37
2022-09-15T20:26:46.418Z,12.38
2022-09-15T20:29:14.351Z,12.37
2022-09-15T20:31:41.492Z,12.43
2022-09-15T20:34:08.213Z,12.31
2022-09-15T20:36:37.237Z,12.27
2022-09-15T20:39:08.701Z,12.37
2022-09-15T20:41:35.556Z,12.18
2022-09-15T20:44:02.451Z,12.17
2022-09-15T20:46:29.392Z,12.07
2022-09-15T20:48:56.046Z,12.06
2022-09-15T20:51:28.189Z,12.10
2022-09-15T20:53:57.074Z,12.11
2022-09-15T20:56:27.057Z,12.08
2022-09-15T20:58:55.501Z,12.09
2022-09-15T21:01:43.546Z,12.04
2022-09-15T21:04:10.962Z,11.95
2022-09-15T21:06:37.960Z,11.77
2022-09-15T21:09:06.152Z,11.75
2022-09-15T21:11:33.100Z,11.76
2022-09-15T21:13:59.902Z,11.74
2022-09-15T21:16:28.269Z,11.67
2022-09-15T21:18:57.241Z,11.58
2022-09-15T21:21:30.025Z,11.56
2022-09-15T21:24:00.201Z,11.46
2022-09-15T21:26:28.776Z,11.42
2022-09-15T21:28:57.165Z,11.41
2022-09-15T21:31:26.442Z,11.37
2022-09-15T21:33:54.134Z,11.31
2022-09-15T21:36:26.317Z,11.30
2022-09-15T21:38:54.762Z,11.29
2022-09-15T21:41:23.499Z,11.13
2022-09-15T21:43:55.242Z,11.07
2022-09-15T21:46:24.548Z,11.03
2022-09-15T21:48:51.800Z,11.00
2022-09-15T21:51:24.698Z,10.97
2022-09-15T21:53:53.617Z,10.95
2022-09-15T21:56:20.912Z,10.89
2022-09-15T21:58:47.845Z,10.86
2022-09-15T22:01:19.588Z,10.85
2022-09-15T22:03:51.849Z,10.84
2022-09-15T22:06:21.582Z,10.86
2022-09-15T22:08:48.233Z,10.76
2022-09-15T22:11:15.084Z,10.71
2022-09-15T22:13:44.535Z,10.59
2022-09-15T22:16:15.253Z,10.70
2022-09-15T22:18:42.936Z,10.74
2022-09-15T22:21:11.357Z,10.82
2022-09-15T22:23:39.035Z,10.85
2022-09-15T22:26:11.567Z,10.69
2022-09-15T22:28:38.621Z,10.81
2022-09-15T22:31:07.878Z,10.80
2022-09-15T22:33:35.062Z,10.83
2022-09-15T22:36:02.509Z,10.88
2022-09-15T22:38:30.693Z,10.88
2022-09-15T22:41:03.988Z,10.79
2022-09-15T22:43:30.607Z,10.58
2022-09-15T22:45:57.337Z,10.55
2022-09-15T22:48:24.238Z,10.74
2022-09-15T22:50:50.866Z,10.82
2022-09-15T22:53:17.519Z,10.93
2022-09-15T22:55:44.189Z,10.82
2022-09-15T22:58:10.880Z,10.77
2022-09-15T23:00:38.666Z,10.61
2022-09-15T23:03:06.859Z,10.83
2022-09-15T23:05:34.465Z,10.84
2022-09-15T23:08:01.255Z,10.78
2022-09-15T23:10:28.259Z,10.73
2022-09-15T23:12:54.866Z,10.74
2022-09-15T23:15:21.499Z,10.64
2022-09-15T23:17:48.119Z,10.64
2022-09-15T23:20:14.862Z,10.67
2022-09-15T23:22:41.447Z,10.65
2022-09-15T23:25:08.555Z,10.68
2022-09-15T23:27:35.278Z,10.67
2022-09-15T23:30:01.861Z,10.64
2022-09-15T23:32:28.496Z,10.65
2022-09-15T23:34:55.194Z,10.58
2022-09-15T23:37:21.812Z,10.62
2022-09-15T23:39:48.512Z,10.59
2022-09-15T23:42:18.768Z,10.60
2022-09-15T23:44:45.826Z,10.52
2022-09-15T23:47:12.461Z,10.69
2022-09-15T23:49:39.100Z,10.68
2022-09-15T23:52:05.710Z,10.74
2022-09-15T23:54:32.300Z,10.74
2022-09-15T23:56:59.054Z,10.71
2022-09-15T23:59:25.683Z,10.81
